Time;durP1;ratioP1;P1;durP2;ratioP2;P2;SDS_P1;SDS_P2;PMS_P1;PMS_P2;Temp;Humidity;BMP_temperature;BMP_pressure;BME280_temperature;BME280_humidity;BME280_pressure;Samples;Min_cycle;Max_cycle;Signal;HPM_P1;HPM_P2
2023/10/30 00:00:34;;;;;;;10.87;2.17;;;13.30;99.90;;;;;;5078409;28;20209;-80
2023/10/30 00:03:00;;;;;;;12.03;2.60;;;13.30;1.00;;;;;;5077210;28;20252;-81
2023/10/30 00:05:25;;;;;;;7.53;2.50;;;13.30;1.00;;;;;;5073526;28;20474;-81
2023/10/30 00:07:51;;;;;;;8.60;2.03;;;13.30;1.00;;;;;;5075848;28;20262;-81
2023/10/30 00:10:16;;;;;;;10.07;2.17;;;13.30;1.00;;;;;;5079965;28;20231;-81
2023/10/30 00:12:42;;;;;;;6.27;1.80;;;13.30;99.90;;;;;;5057967;28;20674;-80
2023/10/30 00:15:08;;;;;;;7.73;2.00;;;13.30;99.90;;;;;;5059852;28;20197;-80
2023/10/30 00:17:34;;;;;;;6.93;2.00;;;13.30;99.90;;;;;;5077249;28;20197;-81
2023/10/30 00:19:59;;;;;;;8.83;1.70;;;13.30;1.00;;;;;;5077816;28;21078;-82
2023/10/30 00:22:25;;;;;;;10.17;2.10;;;13.30;1.00;;;;;;5077695;28;20186;-81
2023/10/30 00:24:50;;;;;;;8.70;2.10;;;13.30;1.00;;;;;;5069391;28;20178;-81
2023/10/30 00:27:16;;;;;;;9.37;2.80;;;13.30;1.00;;;;;;5078133;28;20196;-81
2023/10/30 00:29:42;;;;;;;6.87;2.27;;;13.30;1.00;;;;;;5079956;28;20188;-81
2023/10/30 00:32:08;;;;;;;6.97;2.20;;;13.30;1.00;;;;;;5078862;28;20181;-80
2023/10/30 00:34:34;;;;;;;9.57;3.10;;;13.30;1.00;;;;;;5058289;28;20427;-81
2023/10/30 00:37:00;;;;;;;6.30;2.60;;;13.30;1.00;;;;;;5078840;28;20346;-81
2023/10/30 00:39:27;;;;;;;14.23;2.17;;;13.30;1.00;;;;;;5078590;28;20499;-81
2023/10/30 00:41:52;;;;;;;7.60;1.90;;;13.30;1.00;;;;;;5075983;28;20174;-81
2023/10/30 00:44:18;;;;;;;11.27;3.97;;;13.30;1.00;;;;;;5076600;28;20501;-82
2023/10/30 00:46:44;;;;;;;7.80;2.00;;;13.30;1.00;;;;;;5076969;28;20198;-81
2023/10/30 00:49:09;;;;;;;8.83;1.87;;;13.30;1.00;;;;;;5075685;28;20176;-81
2023/10/30 00:51:35;;;;;;;10.43;2.13;;;13.30;1.00;;;;;;5077164;28;20193;-82
2023/10/30 00:54:00;;;;;;;7.33;2.30;;;13.30;1.00;;;;;;5078179;28;20181;-81
2023/10/30 00:56:26;;;;;;;10.10;2.30;;;13.30;1.00;;;;;;5059313;28;20201;-81
2023/10/30 00:58:51;;;;;;;7.63;1.80;;;13.30;1.00;;;;;;5074572;28;20188;-81
2023/10/30 01:01:17;;;;;;;9.90;1.83;;;13.30;99.90;;;;;;5079971;28;20215;-81
2023/10/30 01:03:43;;;;;;;14.77;2.77;;;13.30;99.90;;;;;;5079570;28;20181;-81
2023/10/30 01:06:09;;;;;;;7.37;1.90;;;13.30;1.00;;;;;;5079522;28;20569;-81
2023/10/30 01:08:35;;;;;;;5.97;1.60;;;13.40;1.00;;;;;;5081855;28;20466;-81
2023/10/30 01:11:00;;;;;;;12.10;1.77;;;13.40;1.00;;;;;;5082130;28;20201;-81
2023/10/30 01:13:26;;;;;;;7.87;1.77;;;13.40;99.90;;;;;;5079191;28;21011;-80
2023/10/30 01:15:55;;;;;;;6.27;1.50;;;13.40;99.90;;;;;;5079595;28;20216;-82
2023/10/30 01:18:22;;;;;;;5.73;1.47;;;13.40;99.90;;;;;;5060348;28;20467;-81
2023/10/30 01:20:47;;;;;;;6.07;1.70;;;13.40;99.90;;;;;;5080077;28;20463;-82
2023/10/30 01:23:14;;;;;;;13.03;1.83;;;13.40;99.90;;;;;;5081558;28;20451;-81
2023/10/30 01:25:40;;;;;;;6.80;2.10;;;13.40;1.00;;;;;;5081308;28;20182;-82
2023/10/30 01:28:05;;;;;;;5.43;1.87;;;13.40;1.00;;;;;;5081606;28;20447;-81
2023/10/30 01:30:31;;;;;;;7.40;2.07;;;13.40;1.00;;;;;;5063225;28;20185;-81
2023/10/30 01:32:56;;;;;;;9.83;1.93;;;13.40;1.00;;;;;;5076924;28;20192;-82
2023/10/30 01:35:22;;;;;;;9.53;1.90;;;13.40;1.00;;;;;;5057666;28;20273;-82
2023/10/30 01:37:47;;;;;;;5.23;1.37;;;13.40;1.00;;;;;;5080403;28;20272;-82
2023/10/30 01:40:14;;;;;;;16.00;2.50;;;13.40;1.00;;;;;;5075039;28;20213;-81
2023/10/30 01:42:40;;;;;;;4.17;2.00;;;13.40;1.00;;;;;;5081678;28;20188;-83
2023/10/30 01:45:06;;;;;;;6.57;1.80;;;13.40;1.00;;;;;;5062213;28;20439;-81
2023/10/30 01:47:31;;;;;;;10.60;2.10;;;13.40;1.00;;;;;;5060284;28;20208;-81
2023/10/30 01:49:57;;;;;;;6.50;1.70;;;13.40;1.00;;;;;;5076852;28;20443;-82
2023/10/30 01:52:23;;;;;;;6.17;1.80;;;13.40;1.00;;;;;;5079895;28;20188;-81
2023/10/30 01:54:50;;;;;;;8.17;1.90;;;13.40;1.00;;;;;;5079608;28;20435;-82
2023/10/30 01:57:18;;;;;;;8.27;2.77;;;13.40;1.00;;;;;;5061718;28;20201;-81
2023/10/30 01:59:44;;;;;;;7.80;1.90;;;13.40;99.90;;;;;;5078665;28;20573;-81
2023/10/30 02:02:11;;;;;;;9.47;1.90;;;13.40;99.90;;;;;;5076824;28;20440;-81
2023/10/30 02:04:36;;;;;;;8.03;1.70;;;13.40;99.90;;;;;;5076632;28;20557;-81
2023/10/30 02:07:05;;;;;;;5.27;1.77;;;13.40;27.00;;;;;;5080200;28;20482;-82
2023/10/30 02:09:31;;;;;;;8.20;1.70;;;13.40;1.00;;;;;;5078303;28;20187;-81
2023/10/30 02:11:57;;;;;;;5.83;1.70;;;13.40;1.00;;;;;;5080236;28;20505;-81
2023/10/30 02:14:24;;;;;;;6.97;1.60;;;13.40;1.00;;;;;;5078256;28;20466;-81
2023/10/30 02:16:50;;;;;;;10.47;1.67;;;13.40;19.00;;;;;;5080603;28;20462;-81
2023/10/30 02:19:22;;;;;;;8.23;1.80;;;13.40;40.10;;;;;;5076136;28;22568;-81
2023/10/30 02:21:48;;;;;;;9.13;2.37;;;13.40;99.90;;;;;;5079657;28;20546;-81
2023/10/30 02:24:15;;;;;;;10.77;2.00;;;13.40;99.90;;;;;;5081732;28;20446;-82
2023/10/30 02:26:40;;;;;;;10.73;1.63;;;13.40;99.90;;;;;;5061615;28;20197;-82
2023/10/30 02:29:06;;;;;;;15.10;2.57;;;13.40;99.90;;;;;;5061339;28;20423;-81
2023/10/30 02:31:32;;;;;;;7.33;1.77;;;13.30;99.90;;;;;;5080794;28;20185;-81
2023/10/30 02:34:00;;;;;;;5.50;1.60;;;13.30;99.90;;;;;;5079863;28;20191;-82
2023/10/30 02:36:25;;;;;;;10.20;2.50;;;13.30;1.00;;;;;;5078663;28;20516;-82
2023/10/30 02:38:52;;;;;;;4.13;1.37;;;13.30;1.00;;;;;;5076734;28;20996;-82
2023/10/30 02:41:18;;;;;;;5.93;1.70;;;13.30;1.00;;;;;;5076484;28;20231;-82
2023/10/30 02:43:44;;;;;;;5.53;1.73;;;13.30;1.00;;;;;;5079658;28;20432;-82
2023/10/30 02:46:10;;;;;;;5.10;1.70;;;13.30;1.00;;;;;;5061412;28;20462;-82
2023/10/30 02:48:35;;;;;;;10.47;2.43;;;13.30;1.00;;;;;;5079362;28;20326;-81
2023/10/30 02:51:01;;;;;;;9.80;2.07;;;13.30;2.70;;;;;;5064256;28;20257;-81
2023/10/30 02:53:26;;;;;;;8.43;2.07;;;13.30;2.90;;;;;;5077211;28;20542;-81
2023/10/30 02:55:52;;;;;;;11.30;2.07;;;13.30;99.90;;;;;;5080156;28;20612;-81
2023/10/30 02:58:17;;;;;;;7.00;1.90;;;13.30;99.90;;;;;;5080817;28;20189;-81
2023/10/30 03:00:43;;;;;;;3.60;1.90;;;13.20;99.90;;;;;;5076477;28;20296;-82
2023/10/30 03:03:09;;;;;;;15.57;2.50;;;13.20;99.90;;;;;;5078658;28;20181;-81
2023/10/30 03:05:35;;;;;;;9.37;1.63;;;13.20;1.00;;;;;;5060724;28;20178;-80
2023/10/30 03:08:01;;;;;;;3.90;1.70;;;13.20;1.00;;;;;;5079662;28;20431;-81
2023/10/30 03:10:27;;;;;;;14.17;1.90;;;13.20;1.00;;;;;;5078511;28;20451;-81
2023/10/30 03:12:53;;;;;;;11.27;2.60;;;13.20;1.00;;;;;;5072685;28;20471;-81
2023/10/30 03:15:18;;;;;;;5.57;2.17;;;13.10;99.90;;;;;;5077980;28;20439;-81
2023/10/30 03:17:44;;;;;;;5.43;1.80;;;13.10;99.90;;;;;;5077069;28;20212;-81
2023/10/30 03:20:10;;;;;;;9.80;1.60;;;13.10;99.90;;;;;;5078359;28;20205;-81
2023/10/30 03:22:35;;;;;;;6.70;1.40;;;13.00;1.00;;;;;;5076932;28;20186;-81
2023/10/30 03:25:01;;;;;;;6.77;1.60;;;13.00;1.00;;;;;;5077908;28;20201;-81
2023/10/30 03:27:27;;;;;;;6.20;1.90;;;13.00;1.00;;;;;;5078189;28;20232;-81
2023/10/30 03:29:52;;;;;;;5.87;1.63;;;12.90;7.00;;;;;;5075589;28;20444;-81
2023/10/30 03:32:18;;;;;;;11.73;1.83;;;12.90;99.90;;;;;;5080073;28;20239;-81
2023/10/30 03:34:43;;;;;;;10.77;1.83;;;12.90;99.90;;;;;;5054739;28;20215;-80
2023/10/30 03:37:09;;;;;;;6.77;1.77;;;12.90;99.90;;;;;;5078376;28;20659;-81
2023/10/30 03:39:35;;;;;;;5.63;1.87;;;12.90;99.90;;;;;;5078942;28;20200;-81
2023/10/30 03:42:00;;;;;;;8.17;1.80;;;12.90;99.90;;;;;;5079184;28;20469;-80
2023/10/30 03:44:26;;;;;;;7.33;2.17;;;12.80;99.90;;;;;;5078244;28;20195;-80
2023/10/30 03:46:52;;;;;;;8.60;1.77;;;12.80;99.90;;;;;;5065673;28;20244;-80
2023/10/30 03:49:18;;;;;;;6.43;2.07;;;12.80;1.00;;;;;;5077142;28;20189;-81
2023/10/30 03:51:43;;;;;;;5.70;1.80;;;12.70;1.00;;;;;;5076755;28;20446;-80
2023/10/30 03:54:09;;;;;;;9.33;1.73;;;12.70;1.00;;;;;;5079248;28;20200;-80
2023/10/30 03:56:34;;;;;;;12.03;1.50;;;12.70;1.00;;;;;;5078473;28;20224;-80
2023/10/30 03:59:01;;;;;;;9.03;1.70;;;12.60;1.00;;;;;;5061657;28;20702;-81
2023/10/30 04:01:26;;;;;;;6.43;1.87;;;12.60;1.00;;;;;;5075334;28;20205;-81
2023/10/30 04:03:53;;;;;;;10.33;3.10;;;12.60;1.00;;;;;;5077658;28;20463;-81
2023/10/30 04:06:18;;;;;;;7.87;1.60;;;12.60;1.00;;;;;;5055824;28;20273;-81
2023/10/30 04:08:44;;;;;;;9.03;2.47;;;12.60;1.00;;;;;;5060609;28;20467;-80
2023/10/30 04:11:12;;;;;;;5.70;1.50;;;12.60;1.00;;;;;;5057448;28;20202;-81
2023/10/30 04:13:38;;;;;;;4.80;1.53;;;12.60;9.90;;;;;;5077141;28;20193;-80
2023/10/30 04:16:03;;;;;;;13.00;4.10;;;12.60;13.70;;;;;;5077728;28;20466;-81
2023/10/30 04:18:29;;;;;;;9.20;3.67;;;12.60;7.30;;;;;;5078054;28;20213;-80
2023/10/30 04:20:55;;;;;;;9.07;2.33;;;12.60;30.40;;;;;;5073901;28;20557;-79
2023/10/30 04:23:21;;;;;;;8.27;2.00;;;12.60;32.10;;;;;;5080841;28;20177;-81
2023/10/30 04:25:46;;;;;;;7.13;2.40;;;12.50;41.80;;;;;;5077677;28;20496;-81
2023/10/30 04:28:12;;;;;;;6.97;1.63;;;12.50;57.80;;;;;;5081089;28;20172;-81
2023/10/30 04:30:37;;;;;;;8.03;1.67;;;12.50;57.50;;;;;;5079606;28;20193;-81
2023/10/30 04:33:03;;;;;;;11.57;2.43;;;12.50;78.20;;;;;;5078962;28;20605;-81
2023/10/30 04:35:29;;;;;;;7.57;2.50;;;12.50;86.70;;;;;;5078340;28;20181;-81
2023/10/30 04:37:55;;;;;;;11.40;2.07;;;12.50;95.60;;;;;;5062097;28;20209;-81
2023/10/30 04:40:20;;;;;;;13.77;1.90;;;12.50;99.40;;;;;;5082472;28;20489;-81
2023/10/30 04:42:46;;;;;;;8.47;2.10;;;12.50;99.90;;;;;;5060506;28;20185;-80
2023/10/30 04:45:11;;;;;;;6.63;1.93;;;12.50;99.90;;;;;;5062769;28;20249;-81
2023/10/30 04:47:37;;;;;;;12.90;2.60;;;12.40;99.90;;;;;;5083373;28;20208;-81
2023/10/30 04:50:03;;;;;;;11.00;2.33;;;12.40;99.90;;;;;;5083694;28;20189;-81
2023/10/30 04:52:30;;;;;;;7.97;2.10;;;12.40;99.90;;;;;;5065972;28;20215;-81
2023/10/30 04:54:55;;;;;;;7.70;1.80;;;12.40;99.90;;;;;;5078283;28;20213;-81
2023/10/30 04:57:21;;;;;;;9.60;1.90;;;12.40;99.90;;;;;;5082175;28;20439;-81
2023/10/30 04:59:46;;;;;;;5.90;2.27;;;12.30;99.90;;;;;;5063086;28;21420;-81
2023/10/30 05:02:12;;;;;;;7.27;1.97;;;12.40;99.90;;;;;;5061174;28;20174;-80
2023/10/30 05:04:37;;;;;;;4.30;1.50;;;12.40;99.90;;;;;;5082489;28;20225;-80
2023/10/30 05:07:03;;;;;;;6.43;1.43;;;12.40;99.90;;;;;;5082647;28;20212;-80
2023/10/30 05:09:28;;;;;;;13.30;2.30;;;12.40;99.90;;;;;;5082178;28;20275;-80
2023/10/30 05:11:54;;;;;;;10.57;2.47;;;12.30;99.90;;;;;;5079622;28;20209;-81
2023/10/30 05:14:20;;;;;;;3.67;1.53;;;12.30;99.90;;;;;;5064913;28;20227;-81
2023/10/30 05:16:46;;;;;;;11.27;2.07;;;12.30;99.90;;;;;;5080619;28;20279;-81
2023/10/30 05:19:11;;;;;;;9.83;2.67;;;12.30;99.90;;;;;;5084274;28;20424;-81
2023/10/30 05:21:37;;;;;;;6.67;2.17;;;12.30;99.90;;;;;;5082956;28;20248;-81
2023/10/30 05:24:03;;;;;;;8.63;2.30;;;12.30;99.90;;;;;;5083707;28;20666;-80
2023/10/30 05:26:28;;;;;;;9.17;4.13;;;12.30;99.90;;;;;;5066034;28;20675;-81
2023/10/30 05:28:54;;;;;;;8.00;2.00;;;12.30;99.90;;;;;;5060684;28;20439;-81
2023/10/30 05:31:19;;;;;;;5.67;2.50;;;12.20;99.90;;;;;;5084185;28;20191;-81
2023/10/30 05:33:45;;;;;;;12.67;1.97;;;12.20;99.90;;;;;;5077396;28;20224;-81
2023/10/30 05:36:10;;;;;;;11.97;2.23;;;12.20;99.90;;;;;;5059587;28;20197;-82
2023/10/30 05:38:36;;;;;;;7.90;2.23;;;12.20;99.90;;;;;;5062733;28;20574;-81
2023/10/30 05:41:02;;;;;;;8.67;3.27;;;12.20;99.90;;;;;;5083478;28;20259;-81
2023/10/30 05:43:28;;;;;;;11.10;4.33;;;12.10;99.90;;;;;;5084164;28;20447;-81
2023/10/30 05:45:54;;;;;;;12.10;3.87;;;12.10;99.90;;;;;;5079176;28;20178;-80
2023/10/30 05:48:19;;;;;;;7.03;3.00;;;12.10;99.90;;;;;;5082918;28;20450;-81
2023/10/30 05:50:45;;;;;;;13.47;2.60;;;12.10;99.90;;;;;;5083440;28;20201;-81
2023/10/30 05:53:11;;;;;;;7.17;2.10;;;12.10;99.90;;;;;;5083792;28;20177;-81
2023/10/30 05:55:36;;;;;;;9.70;1.70;;;12.00;99.90;;;;;;5083512;28;20182;-80
2023/10/30 05:58:02;;;;;;;8.10;2.17;;;11.90;99.90;;;;;;5086906;28;20177;-80
2023/10/30 06:00:29;;;;;;;9.53;2.57;;;11.80;99.90;;;;;;5084210;28;20228;-80
2023/10/30 06:02:55;;;;;;;12.47;2.20;;;11.80;99.90;;;;;;5080596;28;20292;-80
2023/10/30 06:05:21;;;;;;;7.43;2.10;;;11.80;99.90;;;;;;5078428;28;20475;-80
2023/10/30 06:07:47;;;;;;;5.43;1.80;;;11.70;99.90;;;;;;5078650;28;20201;-81
2023/10/30 06:10:13;;;;;;;7.20;2.10;;;11.70;99.90;;;;;;5079838;28;20459;-81
2023/10/30 06:12:40;;;;;;;6.70;1.83;;;11.60;99.90;;;;;;5062721;28;20533;-81
2023/10/30 06:15:07;;;;;;;6.60;2.30;;;11.60;99.90;;;;;;5079437;28;20506;-79
2023/10/30 06:17:33;;;;;;;11.83;2.17;;;11.60;99.90;;;;;;5079995;28;20458;-81
2023/10/30 06:19:59;;;;;;;9.20;2.73;;;11.60;99.90;;;;;;5057463;28;20451;-81
2023/10/30 06:22:24;;;;;;;14.33;3.30;;;11.50;99.90;;;;;;5062447;28;20451;-81
2023/10/30 06:24:51;;;;;;;13.47;1.80;;;11.50;1.00;;;;;;5079021;28;20182;-79
2023/10/30 06:27:16;;;;;;;5.40;1.73;;;11.50;99.90;;;;;;5077351;28;20197;-81
2023/10/30 06:29:41;;;;;;;5.30;1.70;;;11.50;1.00;;;;;;5059615;28;20440;-80
2023/10/30 06:32:07;;;;;;;8.20;2.17;;;11.50;1.00;;;;;;5079087;28;20709;-81
2023/10/30 06:34:33;;;;;;;15.90;3.00;;;11.50;1.00;;;;;;5078398;28;20193;-81
2023/10/30 06:36:59;;;;;;;9.00;2.17;;;11.40;1.00;;;;;;5079450;28;20201;-81
2023/10/30 06:39:25;;;;;;;8.20;2.03;;;11.40;1.00;;;;;;5080175;28;20515;-81
2023/10/30 06:41:55;;;;;;;8.97;2.10;;;11.40;1.00;;;;;;5079334;28;20770;-81
2023/10/30 06:44:21;;;;;;;8.20;2.30;;;11.40;1.00;;;;;;5078077;28;20173;-81
2023/10/30 06:46:50;;;;;;;11.87;2.20;;;11.40;1.00;;;;;;5076275;28;20455;-81
2023/10/30 06:49:16;;;;;;;11.57;2.47;;;11.50;1.00;;;;;;5055922;28;20432;-81
2023/10/30 06:51:41;;;;;;;11.23;2.37;;;11.40;1.00;;;;;;5075112;28;20446;-81
2023/10/30 06:54:10;;;;;;;12.30;2.67;;;11.40;1.00;;;;;;5072337;28;20427;-82
2023/10/30 06:56:36;;;;;;;7.30;2.00;;;11.40;1.00;;;;;;5077264;28;20201;-81
2023/10/30 06:59:02;;;;;;;8.10;2.17;;;11.40;1.00;;;;;;5061001;28;20495;-81
2023/10/30 07:01:29;;;;;;;13.57;2.63;;;11.40;1.00;;;;;;5075152;28;20490;-81
2023/10/30 07:03:55;;;;;;;5.47;1.80;;;11.50;1.00;;;;;;5057702;28;20178;-81
2023/10/30 07:06:21;;;;;;;10.10;2.67;;;11.60;1.00;;;;;;5077114;28;20458;-81
2023/10/30 07:08:46;;;;;;;9.93;2.30;;;11.70;1.00;;;;;;5073808;28;20458;-81
2023/10/30 07:11:12;;;;;;;10.60;2.43;;;11.90;1.00;;;;;;5071770;28;20466;-81
2023/10/30 07:13:38;;;;;;;7.93;2.97;;;12.10;99.90;;;;;;5074898;28;20529;-81
2023/10/30 07:16:04;;;;;;;13.80;2.90;;;12.30;99.90;;;;;;5071636;28;20303;-82
2023/10/30 07:18:30;;;;;;;10.57;2.30;;;12.50;99.90;;;;;;5077063;28;20197;-82
2023/10/30 07:20:55;;;;;;;12.87;2.17;;;12.80;1.00;;;;;;5076536;28;20690;-81
2023/10/30 07:23:21;;;;;;;8.60;2.30;;;13.60;98.20;;;;;;5076723;28;20603;-82
2023/10/30 07:25:46;;;;;;;11.73;2.63;;;14.90;1.00;;;;;;5071966;28;20264;-82
2023/10/30 07:28:16;;;;;;;9.83;2.43;;;15.20;99.90;;;;;;5077373;28;20186;-81
2023/10/30 07:30:41;;;;;;;11.17;2.60;;;15.80;1.00;;;;;;5075815;28;20606;-81
2023/10/30 07:33:07;;;;;;;9.37;2.30;;;16.40;99.90;;;;;;5068785;28;20443;-82
2023/10/30 07:35:32;;;;;;;7.13;2.27;;;16.90;1.00;;;;;;5071436;28;20289;-82
2023/10/30 07:37:58;;;;;;;10.30;2.90;;;17.10;1.00;;;;;;5076476;28;20209;-82
2023/10/30 07:40:26;;;;;;;8.53;2.60;;;17.40;1.00;;;;;;5072395;28;20260;-82
2023/10/30 07:42:54;;;;;;;10.17;2.20;;;17.20;1.00;;;;;;5059052;28;20646;-82
2023/10/30 07:45:20;;;;;;;7.47;2.23;;;17.30;1.00;;;;;;5076993;28;20438;-82
2023/10/30 07:47:45;;;;;;;7.50;2.47;;;17.40;1.00;;;;;;5075598;28;20544;-82
2023/10/30 07:50:11;;;;;;;9.50;2.20;;;17.50;1.00;;;;;;5074012;28;20231;-81
2023/10/30 07:52:36;;;;;;;12.40;2.07;;;17.80;1.00;;;;;;5069987;28;20655;-82
2023/10/30 07:55:05;;;;;;;8.23;2.87;;;18.30;1.00;;;;;;5077526;28;20259;-83
2023/10/30 07:57:31;;;;;;;6.90;2.90;;;19.30;1.00;;;;;;5076688;28;20197;-82
2023/10/30 07:59:56;;;;;;;8.20;2.50;;;20.30;1.00;;;;;;5070826;28;20483;-82
2023/10/30 08:02:22;;;;;;;6.10;2.17;;;21.40;99.90;;;;;;5053845;28;20458;-83
2023/10/30 08:04:47;;;;;;;10.00;2.43;;;21.80;99.90;;;;;;5075598;28;20187;-82
2023/10/30 08:07:13;;;;;;;6.93;1.90;;;22.40;99.90;;;;;;5075537;28;20200;-82
2023/10/30 08:09:39;;;;;;;10.03;2.00;;;22.00;99.90;;;;;;5072461;28;20654;-83
2023/10/30 08:12:04;;;;;;;14.40;2.43;;;21.20;99.90;;;;;;5080259;28;20197;-82
2023/10/30 08:14:30;;;;;;;3.50;1.53;;;20.40;99.90;;;;;;5060871;28;20186;-82
2023/10/30 08:16:56;;;;;;;11.23;3.43;;;20.00;99.90;;;;;;5044673;28;20216;-82
2023/10/30 08:19:22;;;;;;;9.30;2.17;;;19.40;99.90;;;;;;5078581;28;20435;-82
2023/10/30 08:21:47;;;;;;;7.40;2.47;;;19.00;99.90;;;;;;5077090;28;20224;-81
2023/10/30 08:24:13;;;;;;;8.17;2.47;;;18.50;99.90;;;;;;5077008;28;20197;-82
2023/10/30 08:26:38;;;;;;;9.00;2.87;;;17.70;99.90;;;;;;5079360;28;20211;-82
2023/10/30 08:29:04;;;;;;;9.53;2.23;;;17.40;1.00;;;;;;5077399;28;20255;-82
2023/10/30 08:31:29;;;;;;;8.57;2.23;;;17.10;1.00;;;;;;5079866;28;20253;-82
2023/10/30 08:34:00;;;;;;;10.83;2.47;;;16.90;1.00;;;;;;5075197;28;20189;-82
2023/10/30 08:36:26;;;;;;;8.03;2.30;;;16.50;1.00;;;;;;5074319;28;20205;-82
2023/10/30 08:38:52;;;;;;;5.47;2.30;;;16.40;68.00;;;;;;5065788;28;22143;-81
2023/10/30 08:41:17;;;;;;;9.30;3.70;;;16.20;99.90;;;;;;5072645;28;20231;-82
2023/10/30 08:43:44;;;;;;;10.70;2.20;;;16.20;99.90;;;;;;5074081;28;20182;-82
2023/10/30 08:46:15;;;;;;;7.03;2.30;;;16.30;99.90;;;;;;5076685;28;20463;-82
2023/10/30 08:48:40;;;;;;;5.60;2.50;;;16.30;99.90;;;;;;5075354;28;20439;-82
2023/10/30 08:51:06;;;;;;;6.00;2.10;;;16.40;99.90;;;;;;5076865;28;20473;-82
2023/10/30 08:53:32;;;;;;;8.17;1.90;;;16.30;99.90;;;;;;5080197;28;20223;-82
2023/10/30 08:55:58;;;;;;;10.97;2.30;;;16.40;99.90;;;;;;5077065;28;20215;-81
2023/10/30 08:58:23;;;;;;;9.67;1.97;;;16.60;99.90;;;;;;5081866;28;21024;-82
2023/10/30 09:00:49;;;;;;;5.77;1.73;;;16.50;99.90;;;;;;5084338;28;20201;-81
2023/10/30 09:03:15;;;;;;;15.30;3.07;;;16.50;99.90;;;;;;5079969;28;20423;-81
2023/10/30 09:05:40;;;;;;;7.00;2.30;;;16.30;99.90;;;;;;5080839;28;20183;-81
2023/10/30 09:08:06;;;;;;;7.70;2.20;;;16.20;1.00;;;;;;5081485;28;20518;-80
2023/10/30 09:10:32;;;;;;;5.03;1.87;;;16.00;1.00;;;;;;5084503;28;20201;-81
2023/10/30 09:12:58;;;;;;;3.93;1.90;;;16.00;1.00;;;;;;5079875;28;20182;-81
2023/10/30 09:15:23;;;;;;;11.33;2.60;;;16.10;1.00;;;;;;5077381;28;20450;-81
2023/10/30 09:17:49;;;;;;;7.63;2.50;;;16.00;1.00;;;;;;5055061;28;20205;-81
2023/10/30 09:20:15;;;;;;;5.00;1.90;;;16.00;1.00;;;;;;5068729;28;20205;-81
2023/10/30 09:22:40;;;;;;;5.40;2.33;;;15.90;1.00;;;;;;5078917;28;20184;-80
2023/10/30 09:25:07;;;;;;;8.40;2.20;;;15.90;15.10;;;;;;5073203;28;20186;-81
2023/10/30 09:27:32;;;;;;;11.00;2.57;;;16.00;99.90;;;;;;5072736;28;20313;-80
2023/10/30 09:29:58;;;;;;;8.53;2.60;;;15.90;99.90;;;;;;5051998;28;20979;-81
2023/10/30 09:32:25;;;;;;;7.97;2.13;;;16.00;99.90;;;;;;5076129;28;20773;-81
2023/10/30 09:34:51;;;;;;;7.23;2.57;;;16.00;99.90;;;;;;5078148;28;20182;-82
2023/10/30 09:37:16;;;;;;;6.10;2.13;;;16.20;99.90;;;;;;5071737;28;20463;-81
2023/10/30 09:39:42;;;;;;;10.03;2.30;;;16.40;1.00;;;;;;5076912;28;20196;-81
2023/10/30 09:42:08;;;;;;;7.00;2.23;;;16.20;1.00;;;;;;5058513;28;20272;-81
2023/10/30 09:44:34;;;;;;;5.70;1.70;;;16.30;1.00;;;;;;5078491;28;20181;-81
2023/10/30 09:47:02;;;;;;;7.63;2.10;;;16.40;1.00;;;;;;5078207;28;20209;-82
2023/10/30 09:49:29;;;;;;;5.13;1.93;;;16.40;1.00;;;;;;5078127;28;20447;-82
2023/10/30 09:51:57;;;;;;;6.43;1.80;;;16.50;1.00;;;;;;5055427;28;20444;-81
2023/10/30 09:54:23;;;;;;;5.93;2.37;;;16.70;1.00;;;;;;5074964;28;20441;-81
2023/10/30 09:56:49;;;;;;;5.97;2.30;;;17.00;99.90;;;;;;5078674;28;20526;-81
2023/10/30 09:59:16;;;;;;;5.80;2.27;;;17.20;99.90;;;;;;5077357;28;20181;-81
2023/10/30 10:01:42;;;;;;;7.53;2.23;;;17.10;99.90;;;;;;5076655;28;20497;-80
2023/10/30 10:04:07;;;;;;;9.43;1.83;;;17.00;99.90;;;;;;5059567;28;20443;-82
2023/10/30 10:06:33;;;;;;;6.87;2.00;;;17.10;99.90;;;;;;5077232;28;20262;-82
2023/10/30 10:09:00;;;;;;;5.80;1.80;;;17.10;99.90;;;;;;5053202;28;20185;-81
2023/10/30 10:11:32;;;;;;;4.43;1.70;;;17.30;99.90;;;;;;5078401;28;20272;-82
2023/10/30 10:13:57;;;;;;;5.83;1.90;;;17.30;39.00;;;;;;5057638;28;20945;-81
2023/10/30 10:16:28;;;;;;;6.87;2.27;;;17.10;1.00;;;;;;5073007;28;20558;-82
2023/10/30 10:18:54;;;;;;;5.77;1.17;;;16.90;1.00;;;;;;5060187;28;20215;-82
2023/10/30 10:21:22;;;;;;;5.57;1.70;;;16.90;11.40;;;;;;5076456;28;20479;-83
2023/10/30 10:23:47;;;;;;;3.53;1.20;;;17.10;51.10;;;;;;5076650;28;20212;-82
2023/10/30 10:26:14;;;;;;;5.93;1.40;;;17.00;24.20;;;;;;5075337;28;20455;-82
2023/10/30 10:28:44;;;;;;;9.10;2.00;;;17.00;32.20;;;;;;5079021;28;20200;-81
2023/10/30 10:31:14;;;;;;;4.90;1.50;;;16.90;24.80;;;;;;5063465;28;20989;-82
2023/10/30 10:33:39;;;;;;;4.60;1.20;;;16.90;99.90;;;;;;5073630;28;20919;-81
2023/10/30 10:36:06;;;;;;;4.70;1.57;;;17.00;99.90;;;;;;5078829;28;20466;-82
2023/10/30 10:38:32;;;;;;;2.67;1.20;;;17.00;99.90;;;;;;5079838;28;20169;-82
2023/10/30 10:40:58;;;;;;;3.67;1.33;;;17.20;99.90;;;;;;5078667;28;20475;-82
2023/10/30 10:43:28;;;;;;;5.33;1.80;;;17.10;1.00;;;;;;5077286;28;20435;-83
2023/10/30 10:45:56;;;;;;;4.43;1.30;;;17.40;90.20;;;;;;5073110;28;20522;-82
2023/10/30 10:48:24;;;;;;;5.70;1.27;;;17.30;1.00;;;;;;5077941;28;20473;-82
2023/10/30 10:50:55;;;;;;;6.77;1.03;;;17.40;1.00;;;;;;5077886;28;20471;-83
2023/10/30 10:53:21;;;;;;;4.80;1.20;;;17.20;1.00;;;;;;5060288;28;20439;-81
2023/10/30 10:55:48;;;;;;;3.10;1.30;;;17.20;5.50;;;;;;5074602;28;21199;-81
2023/10/30 10:58:20;;;;;;;2.90;1.30;;;17.10;27.40;;;;;;5078551;28;20447;-81
2023/10/30 11:00:47;;;;;;;2.70;1.07;;;17.00;31.40;;;;;;5076672;28;20459;-81
2023/10/30 11:03:14;;;;;;;5.13;1.60;;;16.90;26.50;;;;;;5073625;28;20823;-81
2023/10/30 11:05:40;;;;;;;5.90;1.10;;;16.80;88.50;;;;;;5057224;28;20439;-81
2023/10/30 11:08:11;;;;;;;3.40;1.10;;;16.80;99.90;;;;;;5070977;28;20515;-82
2023/10/30 11:10:43;;;;;;;4.10;1.30;;;16.70;99.90;;;;;;5076029;28;20514;-81
2023/10/30 11:13:38;;;;;;;2.00;1.20;;;16.60;99.90;;;;;;5072621;28;20476;-81
2023/10/30 11:16:10;;;;;;;4.77;1.40;;;16.40;99.90;;;;;;5059281;28;20468;-81
2023/10/30 11:18:38;;;;;;;3.47;1.33;;;16.40;99.90;;;;;;5069586;28;20458;-81
2023/10/30 11:21:12;;;;;;;2.83;0.87;;;16.50;99.90;;;;;;5051577;28;20468;-81
2023/10/30 11:23:44;;;;;;;1.90;1.10;;;16.40;99.90;;;;;;5073622;28;20456;-81
2023/10/30 11:26:11;;;;;;;3.47;1.10;;;16.40;1.00;;;;;;5050047;28;20447;-81
2023/10/30 11:28:37;;;;;;;4.97;1.10;;;16.40;1.00;;;;;;5073560;28;20821;-81
2023/10/30 11:31:11;;;;;;;4.90;1.00;;;16.40;1.00;;;;;;5076440;28;20447;-80
2023/10/30 11:33:37;;;;;;;2.03;0.90;;;16.30;99.90;;;;;;5075260;28;20434;-81
2023/10/30 11:36:14;;;;;;;4.50;1.30;;;16.40;1.00;;;;;;5070487;28;20455;-81
2023/10/30 11:38:52;;;;;;;2.77;0.77;;;16.30;1.00;;;;;;5055014;28;20205;-81
2023/10/30 11:41:18;;;;;;;6.03;0.80;;;16.30;1.00;;;;;;5074540;28;20997;-83
2023/10/30 11:43:44;;;;;;;2.53;1.00;;;16.20;1.00;;;;;;5075484;28;20436;-81
2023/10/30 11:46:14;;;;;;;4.17;1.77;;;16.20;1.00;;;;;;5073870;28;20511;-80
2023/10/30 11:48:40;;;;;;;2.67;0.90;;;16.20;1.00;;;;;;5076687;28;20435;-81
2023/10/30 11:51:07;;;;;;;1.67;1.20;;;16.20;1.00;;;;;;5058537;28;20440;-81
2023/10/30 11:53:33;;;;;;;3.43;1.07;;;16.10;1.00;;;;;;5050612;28;20444;-81
2023/10/30 11:56:00;;;;;;;3.60;0.90;;;16.10;1.00;;;;;;5058076;28;20550;-81
2023/10/30 11:58:26;;;;;;;3.90;0.80;;;16.30;1.00;;;;;;5057434;28;20193;-81
2023/10/30 12:00:52;;;;;;;3.07;0.80;;;16.50;1.00;;;;;;5076113;28;20482;-81
2023/10/30 12:03:18;;;;;;;2.60;0.90;;;16.60;1.00;;;;;;5056045;28;20456;-82
2023/10/30 12:05:44;;;;;;;5.00;1.20;;;16.80;99.90;;;;;;5073605;28;20471;-83
2023/10/30 12:08:10;;;;;;;2.80;0.90;;;17.10;99.90;;;;;;5077519;28;20238;-83
2023/10/30 12:10:37;;;;;;;4.63;1.03;;;17.20;99.90;;;;;;5072237;28;20986;-82
2023/10/30 12:13:04;;;;;;;2.17;1.03;;;17.40;99.90;;;;;;5075787;28;20443;-82
2023/10/30 12:15:29;;;;;;;3.90;0.90;;;17.40;88.30;;;;;;5080123;28;20515;-82
2023/10/30 12:17:56;;;;;;;1.57;0.80;;;17.70;23.30;;;;;;5083783;28;20497;-83
2023/10/30 12:20:21;;;;;;;2.07;0.90;;;17.80;1.00;;;;;;5076528;28;20307;-83
2023/10/30 12:22:47;;;;;;;3.00;0.90;;;17.70;1.00;;;;;;5057730;28;20471;-83
2023/10/30 12:25:16;;;;;;;1.10;0.70;;;17.60;1.00;;;;;;5074872;28;20178;-82
2023/10/30 12:27:45;;;;;;;2.50;1.17;;;17.50;1.00;;;;;;5070053;28;20236;-83
2023/10/30 12:30:16;;;;;;;2.13;1.00;;;17.50;28.80;;;;;;5076611;28;20450;-82
2023/10/30 12:32:43;;;;;;;1.60;0.80;;;17.40;21.80;;;;;;5059558;28;20447;-83
2023/10/30 12:35:13;;;;;;;2.63;0.87;;;17.30;41.50;;;;;;5058871;28;20538;-81
2023/10/30 12:37:39;;;;;;;1.60;0.70;;;17.20;98.00;;;;;;5059065;28;20554;-81
2023/10/30 12:40:09;;;;;;;1.70;0.83;;;17.20;99.90;;;;;;5057540;28;20468;-82
2023/10/30 12:42:43;;;;;;;2.53;1.10;;;17.30;99.90;;;;;;5063267;28;20429;-82
2023/10/30 12:45:11;;;;;;;1.67;0.90;;;17.20;99.90;;;;;;5060934;28;20433;-82